sensor_id;sensor_type;location;lat;lon;timestamp;temperature;humidity
20319;DHT22;10317;47.254;11.314;2022-09-13T00:00:14;10.60;99.90
20319;DHT22;10317;47.254;11.314;2022-09-13T00:02:40;10.60;99.90
20319;DHT22;10317;47.254;11.314;2022-09-13T00:05:05;10.50;99.90
20319;DHT22;10317;47.254;11.314;2022-09-13T00:07:32;10.50;99.90
20319;DHT22;10317;47.254;11.314;2022-09-13T00:09:57;10.50;99.90
20319;DHT22;10317;47.254;11.314;2022-09-13T00:12:23;10.50;99.90
20319;DHT22;10317;47.254;11.314;2022-09-13T00:14:49;10.50;99.90
20319;DHT22;10317;47.254;11.314;2022-09-13T00:17:14;10.50;99.90
20319;DHT22;10317;47.254;11.314;2022-09-13T00:19:40;10.40;99.90
20319;DHT22;10317;47.254;11.314;2022-09-13T00:22:07;10.40;99.90
20319;DHT22;10317;47.254;11.314;2022-09-13T00:24:32;10.30;99.90
20319;DHT22;10317;47.254;11.314;2022-09-13T00:26:59;10.40;99.90
20319;DHT22;10317;47.254;11.314;2022-09-13T00:29:26;10.40;99.90
20319;DHT22;10317;47.254;11.314;2022-09-13T00:31:51;10.30;99.90
20319;DHT22;10317;47.254;11.314;2022-09-13T00:34:17;10.30;99.90
20319;DHT22;10317;47.254;11.314;2022-09-13T00:36:43;10.30;99.90
20319;DHT22;10317;47.254;11.314;2022-09-13T00:39:11;10.20;99.90
20319;DHT22;10317;47.254;11.314;2022-09-13T00:41:37;10.20;99.90
20319;DHT22;10317;47.254;11.314;2022-09-13T00:44:04;10.20;99.90
20319;DHT22;10317;47.254;11.314;2022-09-13T00:51:41;10.20;99.90
20319;DHT22;10317;47.254;11.314;2022-09-13T00:54:08;10.10;99.90
20319;DHT22;10317;47.254;11.314;2022-09-13T00:56:38;10.20;99.90
20319;DHT22;10317;47.254;11.314;2022-09-13T00:59:15;10.10;99.90
20319;DHT22;10317;47.254;11.314;2022-09-13T01:01:47;10.00;99.90
20319;DHT22;10317;47.254;11.314;2022-09-13T01:04:15;10.00;99.90
20319;DHT22;10317;47.254;11.314;2022-09-13T01:06:43;10.00;99.90
20319;DHT22;10317;47.254;11.314;2022-09-13T01:09:10;10.00;99.90
20319;DHT22;10317;47.254;11.314;2022-09-13T01:11:46;10.00;99.90
20319;DHT22;10317;47.254;11.314;2022-09-13T01:14:21;10.00;99.90
20319;DHT22;10317;47.254;11.314;2022-09-13T01:16:48;10.00;99.90
20319;DHT22;10317;47.254;11.314;2022-09-13T01:19:14;9.90;99.90
20319;DHT22;10317;47.254;11.314;2022-09-13T01:21:59;9.90;99.90
20319;DHT22;10317;47.254;11.314;2022-09-13T01:43:26;9.80;99.90
20319;DHT22;10317;47.254;11.314;2022-09-13T01:46:05;9.80;99.90
20319;DHT22;10317;47.254;11.314;2022-09-13T01:56:35;9.70;99.90
20319;DHT22;10317;47.254;11.314;2022-09-13T02:01:54;9.70;99.90
20319;DHT22;10317;47.254;11.314;2022-09-13T02:04:29;9.60;99.90
20319;DHT22;10317;47.254;11.314;2022-09-13T02:09:38;9.60;99.90
20319;DHT22;10317;47.254;11.314;2022-09-13T02:12:16;9.60;99.90
20319;DHT22;10317;47.254;11.314;2022-09-13T02:14:47;9.60;99.90
20319;DHT22;10317;47.254;11.314;2022-09-13T02:17:19;9.60;99.90
20319;DHT22;10317;47.254;11.314;2022-09-13T02:19:54;9.50;99.90
20319;DHT22;10317;47.254;11.314;2022-09-13T02:22:28;9.50;99.90
20319;DHT22;10317;47.254;11.314;2022-09-13T02:24:59;9.50;99.90
20319;DHT22;10317;47.254;11.314;2022-09-13T02:27:31;9.40;99.90
20319;DHT22;10317;47.254;11.314;2022-09-13T02:30:02;9.40;99.90
20319;DHT22;10317;47.254;11.314;2022-09-13T02:32:32;9.40;99.90
20319;DHT22;10317;47.254;11.314;2022-09-13T02:37:33;9.40;99.90
20319;DHT22;10317;47.254;11.314;2022-09-13T02:40:07;9.40;99.90
20319;DHT22;10317;47.254;11.314;2022-09-13T02:42:35;9.40;99.90
20319;DHT22;10317;47.254;11.314;2022-09-13T02:45:04;9.50;99.90
20319;DHT22;10317;47.254;11.314;2022-09-13T02:52:49;9.50;99.90
20319;DHT22;10317;47.254;11.314;2022-09-13T02:58:18;9.50;99.90
20319;DHT22;10317;47.254;11.314;2022-09-13T03:00:46;9.50;99.90
20319;DHT22;10317;47.254;11.314;2022-09-13T03:03:14;9.50;99.90
20319;DHT22;10317;47.254;11.314;2022-09-13T03:05:41;9.40;99.90
20319;DHT22;10317;47.254;11.314;2022-09-13T03:08:08;9.40;99.90
20319;DHT22;10317;47.254;11.314;2022-09-13T03:10:48;9.40;99.90
20319;DHT22;10317;47.254;11.314;2022-09-13T03:13:35;9.40;99.90
20319;DHT22;10317;47.254;11.314;2022-09-13T03:16:21;9.40;99.90
20319;DHT22;10317;47.254;11.314;2022-09-13T03:22:11;9.30;99.90
20319;DHT22;10317;47.254;11.314;2022-09-13T03:27:18;9.30;99.90
20319;DHT22;10317;47.254;11.314;2022-09-13T03:30:00;9.30;99.90
20319;DHT22;10317;47.254;11.314;2022-09-13T03:37:57;9.30;99.90
20319;DHT22;10317;47.254;11.314;2022-09-13T03:40:33;9.30;99.90
20319;DHT22;10317;47.254;11.314;2022-09-13T03:43:27;9.20;99.90
20319;DHT22;10317;47.254;11.314;2022-09-13T03:46:03;9.30;99.90
20319;DHT22;10317;47.254;11.314;2022-09-13T03:48:31;9.30;99.90
20319;DHT22;10317;47.254;11.314;2022-09-13T03:51:00;9.30;99.90
20319;DHT22;10317;47.254;11.314;2022-09-13T03:53:27;9.30;99.90
20319;DHT22;10317;47.254;11.314;2022-09-13T03:55:54;9.30;99.90
20319;DHT22;10317;47.254;11.314;2022-09-13T03:58:21;9.30;99.90
20319;DHT22;10317;47.254;11.314;2022-09-13T04:00:47;9.30;99.90
20319;DHT22;10317;47.254;11.314;2022-09-13T04:03:13;9.30;99.90
20319;DHT22;10317;47.254;11.314;2022-09-13T04:05:39;9.20;99.90
20319;DHT22;10317;47.254;11.314;2022-09-13T04:08:06;9.20;99.90
20319;DHT22;10317;47.254;11.314;2022-09-13T04:10:33;9.20;99.90
20319;DHT22;10317;47.254;11.314;2022-09-13T04:12:59;9.20;99.90
20319;DHT22;10317;47.254;11.314;2022-09-13T04:15:27;9.20;99.90
20319;DHT22;10317;47.254;11.314;2022-09-13T04:17:53;9.20;99.90
20319;DHT22;10317;47.254;11.314;2022-09-13T04:20:19;9.20;99.90
20319;DHT22;10317;47.254;11.314;2022-09-13T04:22:52;9.20;99.90
20319;DHT22;10317;47.254;11.314;2022-09-13T04:25:19;9.20;99.90
20319;DHT22;10317;47.254;11.314;2022-09-13T04:27:45;9.20;99.90
20319;DHT22;10317;47.254;11.314;2022-09-13T04:30:11;9.20;99.90
20319;DHT22;10317;47.254;11.314;2022-09-13T04:32:37;9.20;99.90
20319;DHT22;10317;47.254;11.314;2022-09-13T04:35:03;9.10;99.90
20319;DHT22;10317;47.254;11.314;2022-09-13T04:37:28;9.10;99.90
20319;DHT22;10317;47.254;11.314;2022-09-13T04:39:54;9.10;99.90
20319;DHT22;10317;47.254;11.314;2022-09-13T04:42:20;9.00;99.90
20319;DHT22;10317;47.254;11.314;2022-09-13T04:44:45;9.00;99.90
20319;DHT22;10317;47.254;11.314;2022-09-13T04:47:14;9.00;99.90
20319;DHT22;10317;47.254;11.314;2022-09-13T04:49:40;9.00;99.90
20319;DHT22;10317;47.254;11.314;2022-09-13T04:52:05;8.90;99.90
20319;DHT22;10317;47.254;11.314;2022-09-13T04:54:31;9.00;99.90
20319;DHT22;10317;47.254;11.314;2022-09-13T04:56:57;8.90;99.90
20319;DHT22;10317;47.254;11.314;2022-09-13T04:59:22;8.90;99.90
20319;DHT22;10317;47.254;11.314;2022-09-13T05:01:48;9.00;99.90
20319;DHT22;10317;47.254;11.314;2022-09-13T05:04:14;9.00;99.90
20319;DHT22;10317;47.254;11.314;2022-09-13T05:06:39;9.00;99.90
20319;DHT22;10317;47.254;11.314;2022-09-13T05:09:05;8.90;99.90
20319;DHT22;10317;47.254;11.314;2022-09-13T05:11:31;9.00;99.90
20319;DHT22;10317;47.254;11.314;2022-09-13T05:13:58;9.00;99.90
20319;DHT22;10317;47.254;11.314;2022-09-13T05:16:26;9.00;99.90
20319;DHT22;10317;47.254;11.314;2022-09-13T05:18:53;9.00;99.90
20319;DHT22;10317;47.254;11.314;2022-09-13T05:21:19;9.00;99.90
20319;DHT22;10317;47.254;11.314;2022-09-13T05:23:50;9.10;99.90
20319;DHT22;10317;47.254;11.314;2022-09-13T05:26:16;9.10;99.90
20319;DHT22;10317;47.254;11.314;2022-09-13T05:28:43;9.20;99.90
20319;DHT22;10317;47.254;11.314;2022-09-13T05:33:43;9.10;99.90
20319;DHT22;10317;47.254;11.314;2022-09-13T05:36:09;9.20;99.90
20319;DHT22;10317;47.254;11.314;2022-09-13T05:38:34;9.20;99.90
20319;DHT22;10317;47.254;11.314;2022-09-13T05:41:03;9.20;99.90
20319;DHT22;10317;47.254;11.314;2022-09-13T05:43:31;9.20;99.90
20319;DHT22;10317;47.254;11.314;2022-09-13T05:46:11;9.30;99.90
20319;DHT22;10317;47.254;11.314;2022-09-13T05:48:37;9.40;99.90
20319;DHT22;10317;47.254;11.314;2022-09-13T05:51:18;9.40;99.90
20319;DHT22;10317;47.254;11.314;2022-09-13T05:53:48;9.40;99.90
20319;DHT22;10317;47.254;11.314;2022-09-13T05:56:21;9.50;99.90
20319;DHT22;10317;47.254;11.314;2022-09-13T05:58:49;9.50;99.90
20319;DHT22;10317;47.254;11.314;2022-09-13T06:01:17;9.60;99.90
20319;DHT22;10317;47.254;11.314;2022-09-13T06:03:45;9.60;99.90
20319;DHT22;10317;47.254;11.314;2022-09-13T06:06:11;9.70;99.90
20319;DHT22;10317;47.254;11.314;2022-09-13T06:08:36;9.80;99.90
20319;DHT22;10317;47.254;11.314;2022-09-13T06:11:04;9.80;99.90
20319;DHT22;10317;47.254;11.314;2022-09-13T06:13:31;9.90;99.90
20319;DHT22;10317;47.254;11.314;2022-09-13T06:15:58;9.90;99.90
20319;DHT22;10317;47.254;11.314;2022-09-13T06:18:25;9.90;99.90
20319;DHT22;10317;47.254;11.314;2022-09-13T06:20:57;9.90;99.90
20319;DHT22;10317;47.254;11.314;2022-09-13T06:23:23;10.00;99.90
20319;DHT22;10317;47.254;11.314;2022-09-13T06:25:49;10.10;99.90
20319;DHT22;10317;47.254;11.314;2022-09-13T06:28:15;10.10;99.90
20319;DHT22;10317;47.254;11.314;2022-09-13T06:30:40;10.20;99.90
20319;DHT22;10317;47.254;11.314;2022-09-13T06:33:06;10.30;99.90
20319;DHT22;10317;47.254;11.314;2022-09-13T06:35:32;10.40;99.90
20319;DHT22;10317;47.254;11.314;2022-09-13T06:37:57;10.40;99.90
20319;DHT22;10317;47.254;11.314;2022-09-13T06:40:24;10.60;99.90
20319;DHT22;10317;47.254;11.314;2022-09-13T06:42:50;10.70;99.90
20319;DHT22;10317;47.254;11.314;2022-09-13T06:45:15;10.80;99.90
20319;DHT22;10317;47.254;11.314;2022-09-13T06:47:41;10.90;99.90
20319;DHT22;10317;47.254;11.314;2022-09-13T06:50:07;11.00;99.90
20319;DHT22;10317;47.254;11.314;2022-09-13T06:52:34;11.00;99.90
20319;DHT22;10317;47.254;11.314;2022-09-13T06:54:59;11.10;99.90
20319;DHT22;10317;47.254;11.314;2022-09-13T06:57:25;11.10;99.90
20319;DHT22;10317;47.254;11.314;2022-09-13T06:59:54;11.30;99.90
20319;DHT22;10317;47.254;11.314;2022-09-13T07:02:19;11.50;99.90
20319;DHT22;10317;47.254;11.314;2022-09-13T07:04:45;11.60;99.90
20319;DHT22;10317;47.254;11.314;2022-09-13T07:07:11;11.90;99.90
20319;DHT22;10317;47.254;11.314;2022-09-13T07:09:36;12.10;99.90
20319;DHT22;10317;47.254;11.314;2022-09-13T07:12:04;12.40;99.90
20319;DHT22;10317;47.254;11.314;2022-09-13T07:14:32;12.70;99.90
20319;DHT22;10317;47.254;11.314;2022-09-13T07:16:57;13.00;99.90
20319;DHT22;10317;47.254;11.314;2022-09-13T07:19:26;13.40;99.90
20319;DHT22;10317;47.254;11.314;2022-09-13T07:21:53;13.90;99.90
20319;DHT22;10317;47.254;11.314;2022-09-13T07:24:20;14.40;99.90
20319;DHT22;10317;47.254;11.314;2022-09-13T07:26:48;14.80;99.90
20319;DHT22;10317;47.254;11.314;2022-09-13T07:29:16;15.10;99.90
20319;DHT22;10317;47.254;11.314;2022-09-13T07:31:45;15.50;99.90
20319;DHT22;10317;47.254;11.314;2022-09-13T07:34:16;15.90;99.90
20319;DHT22;10317;47.254;11.314;2022-09-13T07:36:43;16.20;99.90
20319;DHT22;10317;47.254;11.314;2022-09-13T07:39:11;16.50;99.90
20319;DHT22;10317;47.254;11.314;2022-09-13T07:41:37;17.20;99.90
20319;DHT22;10317;47.254;11.314;2022-09-13T07:44:03;17.70;99.20
20319;DHT22;10317;47.254;11.314;2022-09-13T07:46:33;18.20;98.60
20319;DHT22;10317;47.254;11.314;2022-09-13T07:49:04;19.10;96.60
20319;DHT22;10317;47.254;11.314;2022-09-13T07:51:32;19.70;94.00
20319;DHT22;10317;47.254;11.314;2022-09-13T07:54:00;20.40;93.60
20319;DHT22;10317;47.254;11.314;2022-09-13T07:56:32;20.70;92.20
20319;DHT22;10317;47.254;11.314;2022-09-13T07:58:59;21.50;91.10
20319;DHT22;10317;47.254;11.314;2022-09-13T08:01:33;22.10;90.40
20319;DHT22;10317;47.254;11.314;2022-09-13T08:04:01;22.50;87.10
20319;DHT22;10317;47.254;11.314;2022-09-13T08:06:29;22.80;84.00
20319;DHT22;10317;47.254;11.314;2022-09-13T08:08:56;23.20;83.60
20319;DHT22;10317;47.254;11.314;2022-09-13T08:11:33;23.20;80.70
20319;DHT22;10317;47.254;11.314;2022-09-13T08:14:00;23.70;79.50
20319;DHT22;10317;47.254;11.314;2022-09-13T08:16:27;23.90;78.20
20319;DHT22;10317;47.254;11.314;2022-09-13T08:18:55;24.00;75.50
20319;DHT22;10317;47.254;11.314;2022-09-13T08:21:22;24.00;74.60
20319;DHT22;10317;47.254;11.314;2022-09-13T08:23:49;24.00;73.90
20319;DHT22;10317;47.254;11.314;2022-09-13T08:26:15;24.20;73.60
20319;DHT22;10317;47.254;11.314;2022-09-13T08:28:41;24.00;72.10
20319;DHT22;10317;47.254;11.314;2022-09-13T08:31:14;24.20;71.30
20319;DHT22;10317;47.254;11.314;2022-09-13T08:33:46;24.40;72.00
20319;DHT22;10317;47.254;11.314;2022-09-13T08:36:13;24.20;71.90
20319;DHT22;10317;47.254;11.314;2022-09-13T08:38:47;24.20;72.30
20319;DHT22;10317;47.254;11.314;2022-09-13T08:44:38;23.70;70.90
20319;DHT22;10317;47.254;11.314;2022-09-13T09:00:41;23.60;73.20
20319;DHT22;10317;47.254;11.314;2022-09-13T09:03:23;23.40;70.00
20319;DHT22;10317;47.254;11.314;2022-09-13T09:05:51;23.40;72.80
20319;DHT22;10317;47.254;11.314;2022-09-13T09:08:35;23.20;70.10
20319;DHT22;10317;47.254;11.314;2022-09-13T09:11:11;22.90;69.10
20319;DHT22;10317;47.254;11.314;2022-09-13T09:19:14;22.40;72.10
20319;DHT22;10317;47.254;11.314;2022-09-13T09:21:42;22.50;75.00
20319;DHT22;10317;47.254;11.314;2022-09-13T09:24:16;22.90;75.70
20319;DHT22;10317;47.254;11.314;2022-09-13T09:26:43;22.80;75.10
20319;DHT22;10317;47.254;11.314;2022-09-13T09:29:19;22.90;74.40
20319;DHT22;10317;47.254;11.314;2022-09-13T09:35:01;22.60;76.30
20319;DHT22;10317;47.254;11.314;2022-09-13T09:37:29;22.60;77.20
20319;DHT22;10317;47.254;11.314;2022-09-13T09:40:00;22.90;76.90
20319;DHT22;10317;47.254;11.314;2022-09-13T09:42:29;22.90;69.20
20319;DHT22;10317;47.254;11.314;2022-09-13T09:45:03;22.90;70.40
20319;DHT22;10317;47.254;11.314;2022-09-13T09:47:44;22.70;78.30
20319;DHT22;10317;47.254;11.314;2022-09-13T09:50:16;22.90;76.60
20319;DHT22;10317;47.254;11.314;2022-09-13T09:55:45;23.30;74.80
20319;DHT22;10317;47.254;11.314;2022-09-13T09:58:13;23.20;77.60
20319;DHT22;10317;47.254;11.314;2022-09-13T10:03:25;23.50;79.20
20319;DHT22;10317;47.254;11.314;2022-09-13T10:06:04;23.60;78.80
20319;DHT22;10317;47.254;11.314;2022-09-13T10:08:33;23.70;72.70
20319;DHT22;10317;47.254;11.314;2022-09-13T10:11:00;23.80;79.00
20319;DHT22;10317;47.254;11.314;2022-09-13T10:13:27;23.80;79.10
20319;DHT22;10317;47.254;11.314;2022-09-13T10:18:23;23.90;70.20
20319;DHT22;10317;47.254;11.314;2022-09-13T10:21:03;23.90;76.10
20319;DHT22;10317;47.254;11.314;2022-09-13T10:23:34;23.80;76.20
20319;DHT22;10317;47.254;11.314;2022-09-13T10:26:09;23.60;74.00
20319;DHT22;10317;47.254;11.314;2022-09-13T10:28:43;23.50;80.40
20319;DHT22;10317;47.254;11.314;2022-09-13T10:31:14;23.70;84.30
20319;DHT22;10317;47.254;11.314;2022-09-13T10:33:45;23.50;81.30
20319;DHT22;10317;47.254;11.314;2022-09-13T10:36:15;23.20;82.30
20319;DHT22;10317;47.254;11.314;2022-09-13T10:38:50;23.20;83.40
20319;DHT22;10317;47.254;11.314;2022-09-13T10:41:24;23.30;83.20
20319;DHT22;10317;47.254;11.314;2022-09-13T10:44:01;23.60;81.40
20319;DHT22;10317;47.254;11.314;2022-09-13T10:46:31;23.70;72.00
20319;DHT22;10317;47.254;11.314;2022-09-13T10:48:57;23.90;74.90
20319;DHT22;10317;47.254;11.314;2022-09-13T10:56:36;24.00;77.30
20319;DHT22;10317;47.254;11.314;2022-09-13T10:59:25;24.00;68.40
20319;DHT22;10317;47.254;11.314;2022-09-13T11:05:02;24.40;67.50
20319;DHT22;10317;47.254;11.314;2022-09-13T11:10:17;24.10;78.20
20319;DHT22;10317;47.254;11.314;2022-09-13T11:12:48;24.20;79.10
20319;DHT22;10317;47.254;11.314;2022-09-13T11:29:19;24.50;82.10
20319;DHT22;10317;47.254;11.314;2022-09-13T11:40:21;24.70;81.80
20319;DHT22;10317;47.254;11.314;2022-09-13T11:45:50;24.70;83.10
20319;DHT22;10317;47.254;11.314;2022-09-13T11:50:59;24.70;81.00
20319;DHT22;10317;47.254;11.314;2022-09-13T11:56:12;24.90;80.20
20319;DHT22;10317;47.254;11.314;2022-09-13T11:58:47;25.00;78.40
20319;DHT22;10317;47.254;11.314;2022-09-13T12:01:30;25.00;78.60
20319;DHT22;10317;47.254;11.314;2022-09-13T12:03:59;25.20;78.80
20319;DHT22;10317;47.254;11.314;2022-09-13T12:06:37;25.30;78.80
20319;DHT22;10317;47.254;11.314;2022-09-13T12:09:27;25.40;79.60
20319;DHT22;10317;47.254;11.314;2022-09-13T12:12:04;25.50;79.40
20319;DHT22;10317;47.254;11.314;2022-09-13T12:14:52;25.50;78.90
20319;DHT22;10317;47.254;11.314;2022-09-13T12:17:26;25.40;76.50
20319;DHT22;10317;47.254;11.314;2022-09-13T12:19:54;25.40;77.60
20319;DHT22;10317;47.254;11.314;2022-09-13T12:22:23;25.40;77.70
20319;DHT22;10317;47.254;11.314;2022-09-13T12:24:55;25.40;78.10
20319;DHT22;10317;47.254;11.314;2022-09-13T12:30:52;25.50;81.90
20319;DHT22;10317;47.254;11.314;2022-09-13T12:33:19;25.50;83.20
20319;DHT22;10317;47.254;11.314;2022-09-13T12:38:45;25.70;81.40
20319;DHT22;10317;47.254;11.314;2022-09-13T12:41:31;25.80;79.70
20319;DHT22;10317;47.254;11.314;2022-09-13T12:50:50;25.70;75.30
20319;DHT22;10317;47.254;11.314;2022-09-13T12:56:31;25.70;79.00
20319;DHT22;10317;47.254;11.314;2022-09-13T13:02:00;25.80;78.30
20319;DHT22;10317;47.254;11.314;2022-09-13T13:04:31;25.70;77.10
20319;DHT22;10317;47.254;11.314;2022-09-13T13:06:58;25.70;81.80
20319;DHT22;10317;47.254;11.314;2022-09-13T13:09:43;25.70;81.90
20319;DHT22;10317;47.254;11.314;2022-09-13T13:12:11;25.50;78.20
20319;DHT22;10317;47.254;11.314;2022-09-13T13:14:49;25.30;81.90
20319;DHT22;10317;47.254;11.314;2022-09-13T13:20:43;25.00;84.70
20319;DHT22;10317;47.254;11.314;2022-09-13T13:26:00;24.80;84.90
20319;DHT22;10317;47.254;11.314;2022-09-13T13:39:31;24.70;88.00
20319;DHT22;10317;47.254;11.314;2022-09-13T13:54:58;25.00;86.60
20319;DHT22;10317;47.254;11.314;2022-09-13T13:57:37;25.00;79.40
20319;DHT22;10317;47.254;11.314;2022-09-13T14:00:24;25.00;81.10
20319;DHT22;10317;47.254;11.314;2022-09-13T14:19:14;24.30;90.50
20319;DHT22;10317;47.254;11.314;2022-09-13T14:21:41;24.20;90.20
20319;DHT22;10317;47.254;11.314;2022-09-13T14:24:18;24.10;90.20
20319;DHT22;10317;47.254;11.314;2022-09-13T14:26:48;24.10;90.50
20319;DHT22;10317;47.254;11.314;2022-09-13T14:29:19;24.20;90.30
20319;DHT22;10317;47.254;11.314;2022-09-13T14:31:47;24.10;90.40
20319;DHT22;10317;47.254;11.314;2022-09-13T14:34:27;24.10;90.90
20319;DHT22;10317;47.254;11.314;2022-09-13T14:37:03;24.00;90.90
20319;DHT22;10317;47.254;11.314;2022-09-13T14:39:29;24.00;90.80
20319;DHT22;10317;47.254;11.314;2022-09-13T14:42:12;23.90;90.90
20319;DHT22;10317;47.254;11.314;2022-09-13T14:44:43;24.00;90.90
20319;DHT22;10317;47.254;11.314;2022-09-13T14:47:26;23.90;91.20
20319;DHT22;10317;47.254;11.314;2022-09-13T14:50:06;23.90;90.90
20319;DHT22;10317;47.254;11.314;2022-09-13T14:52:36;23.90;90.80
20319;DHT22;10317;47.254;11.314;2022-09-13T14:55:13;23.90;90.60
20319;DHT22;10317;47.254;11.314;2022-09-13T14:57:47;23.90;90.60
20319;DHT22;10317;47.254;11.314;2022-09-13T15:00:18;23.90;90.70
20319;DHT22;10317;47.254;11.314;2022-09-13T15:02:56;23.90;91.00
20319;DHT22;10317;47.254;11.314;2022-09-13T15:05:25;23.80;91.00
20319;DHT22;10317;47.254;11.314;2022-09-13T15:07:51;23.80;90.40
20319;DHT22;10317;47.254;11.314;2022-09-13T15:15:41;23.60;91.50
20319;DHT22;10317;47.254;11.314;2022-09-13T15:20:49;23.30;92.30
20319;DHT22;10317;47.254;11.314;2022-09-13T15:23:32;23.20;93.00
20319;DHT22;10317;47.254;11.314;2022-09-13T15:26:10;23.10;92.80
20319;DHT22;10317;47.254;11.314;2022-09-13T15:31:08;23.10;93.40
20319;DHT22;10317;47.254;11.314;2022-09-13T15:33:35;23.10;93.30
20319;DHT22;10317;47.254;11.314;2022-09-13T15:38:59;22.90;94.20
20319;DHT22;10317;47.254;11.314;2022-09-13T15:44:00;22.70;95.40
20319;DHT22;10317;47.254;11.314;2022-09-13T15:46:27;22.60;95.40
20319;DHT22;10317;47.254;11.314;2022-09-13T15:48:55;22.50;95.80
20319;DHT22;10317;47.254;11.314;2022-09-13T15:51:21;22.50;95.90
20319;DHT22;10317;47.254;11.314;2022-09-13T15:53:47;22.40;95.90
20319;DHT22;10317;47.254;11.314;2022-09-13T15:56:16;22.30;95.70
20319;DHT22;10317;47.254;11.314;2022-09-13T15:58:42;22.30;96.60
20319;DHT22;10317;47.254;11.314;2022-09-13T16:01:11;22.30;96.60
20319;DHT22;10317;47.254;11.314;2022-09-13T16:03:37;22.20;96.60
20319;DHT22;10317;47.254;11.314;2022-09-13T16:06:04;22.20;96.80
20319;DHT22;10317;47.254;11.314;2022-09-13T16:08:29;22.20;96.90
20319;DHT22;10317;47.254;11.314;2022-09-13T16:10:55;22.00;97.50
20319;DHT22;10317;47.254;11.314;2022-09-13T16:13:21;21.90;97.60
20319;DHT22;10317;47.254;11.314;2022-09-13T16:15:47;21.90;98.00
20319;DHT22;10317;47.254;11.314;2022-09-13T16:18:14;21.80;98.20
20319;DHT22;10317;47.254;11.314;2022-09-13T16:20:41;21.80;98.50
20319;DHT22;10317;47.254;11.314;2022-09-13T16:23:07;21.80;98.60
20319;DHT22;10317;47.254;11.314;2022-09-13T16:25:33;21.70;98.80
20319;DHT22;10317;47.254;11.314;2022-09-13T16:28:00;21.70;98.60
20319;DHT22;10317;47.254;11.314;2022-09-13T16:30:26;21.60;98.60
20319;DHT22;10317;47.254;11.314;2022-09-13T16:32:55;21.50;98.60
20319;DHT22;10317;47.254;11.314;2022-09-13T16:35:21;21.40;98.50
20319;DHT22;10317;47.254;11.314;2022-09-13T16:37:47;21.30;98.40
20319;DHT22;10317;47.254;11.314;2022-09-13T16:40:17;21.30;98.50
20319;DHT22;10317;47.254;11.314;2022-09-13T16:42:43;21.20;98.50
20319;DHT22;10317;47.254;11.314;2022-09-13T16:45:09;21.10;98.80
20319;DHT22;10317;47.254;11.314;2022-09-13T16:47:36;21.10;98.90
20319;DHT22;10317;47.254;11.314;2022-09-13T16:50:04;20.90;98.90
20319;DHT22;10317;47.254;11.314;2022-09-13T16:52:31;20.80;98.90
20319;DHT22;10317;47.254;11.314;2022-09-13T16:54:58;20.70;98.90
20319;DHT22;10317;47.254;11.314;2022-09-13T16:57:24;20.60;99.00
20319;DHT22;10317;47.254;11.314;2022-09-13T16:59:51;20.50;99.20
20319;DHT22;10317;47.254;11.314;2022-09-13T17:02:18;20.40;99.00
20319;DHT22;10317;47.254;11.314;2022-09-13T17:04:44;20.30;99.30
20319;DHT22;10317;47.254;11.314;2022-09-13T17:07:11;20.20;99.20
20319;DHT22;10317;47.254;11.314;2022-09-13T17:09:37;20.20;99.30
20319;DHT22;10317;47.254;11.314;2022-09-13T17:12:08;20.10;99.50
20319;DHT22;10317;47.254;11.314;2022-09-13T17:14:35;20.00;99.70
20319;DHT22;10317;47.254;11.314;2022-09-13T17:17:01;20.00;99.30
20319;DHT22;10317;47.254;11.314;2022-09-13T17:19:32;19.80;99.70
20319;DHT22;10317;47.254;11.314;2022-09-13T17:22:03;19.80;99.90
20319;DHT22;10317;47.254;11.314;2022-09-13T17:24:30;19.70;99.90
20319;DHT22;10317;47.254;11.314;2022-09-13T17:26:57;19.70;99.90
20319;DHT22;10317;47.254;11.314;2022-09-13T17:29:25;19.60;99.90
20319;DHT22;10317;47.254;11.314;2022-09-13T17:31:55;19.60;99.90
20319;DHT22;10317;47.254;11.314;2022-09-13T17:34:21;19.40;99.90
20319;DHT22;10317;47.254;11.314;2022-09-13T17:36:46;19.30;99.90
20319;DHT22;10317;47.254;11.314;2022-09-13T17:39:12;19.20;99.90
20319;DHT22;10317;47.254;11.314;2022-09-13T17:41:38;19.20;99.90
20319;DHT22;10317;47.254;11.314;2022-09-13T17:44:04;19.10;99.90
20319;DHT22;10317;47.254;11.314;2022-09-13T17:46:30;19.00;99.90
20319;DHT22;10317;47.254;11.314;2022-09-13T17:48:58;19.00;99.90
20319;DHT22;10317;47.254;11.314;2022-09-13T17:51:29;18.90;99.90
20319;DHT22;10317;47.254;11.314;2022-09-13T17:53:57;18.90;99.90
20319;DHT22;10317;47.254;11.314;2022-09-13T17:56:26;18.70;99.90
20319;DHT22;10317;47.254;11.314;2022-09-13T17:58:56;18.60;99.90
20319;DHT22;10317;47.254;11.314;2022-09-13T18:01:22;18.50;99.90
20319;DHT22;10317;47.254;11.314;2022-09-13T18:03:48;18.50;99.90
20319;DHT22;10317;47.254;11.314;2022-09-13T18:06:14;18.40;99.90
20319;DHT22;10317;47.254;11.314;2022-09-13T18:08:40;18.30;99.90
20319;DHT22;10317;47.254;11.314;2022-09-13T18:11:09;18.20;99.90
20319;DHT22;10317;47.254;11.314;2022-09-13T18:13:35;18.20;99.90
20319;DHT22;10317;47.254;11.314;2022-09-13T18:16:08;18.10;99.90
20319;DHT22;10317;47.254;11.314;2022-09-13T18:18:35;18.10;99.90
20319;DHT22;10317;47.254;11.314;2022-09-13T18:21:01;18.00;99.90
20319;DHT22;10317;47.254;11.314;2022-09-13T18:23:27;18.00;99.90
20319;DHT22;10317;47.254;11.314;2022-09-13T18:26:05;17.90;99.90
20319;DHT22;10317;47.254;11.314;2022-09-13T18:28:32;17.80;99.90
20319;DHT22;10317;47.254;11.314;2022-09-13T18:31:00;17.90;99.90
20319;DHT22;10317;47.254;11.314;2022-09-13T18:33:26;17.80;99.90
20319;DHT22;10317;47.254;11.314;2022-09-13T18:35:57;17.70;99.90
20319;DHT22;10317;47.254;11.314;2022-09-13T18:38:24;17.70;99.90
20319;DHT22;10317;47.254;11.314;2022-09-13T18:41:10;17.70;99.90
20319;DHT22;10317;47.254;11.314;2022-09-13T18:43:38;17.60;99.90
20319;DHT22;10317;47.254;11.314;2022-09-13T18:46:06;17.60;99.90
20319;DHT22;10317;47.254;11.314;2022-09-13T18:48:37;17.60;99.90
20319;DHT22;10317;47.254;11.314;2022-09-13T18:51:04;17.50;99.90
20319;DHT22;10317;47.254;11.314;2022-09-13T18:53:32;17.50;99.90
20319;DHT22;10317;47.254;11.314;2022-09-13T18:56:04;17.50;99.90
20319;DHT22;10317;47.254;11.314;2022-09-13T18:58:31;17.40;99.90
20319;DHT22;10317;47.254;11.314;2022-09-13T19:03:26;17.40;99.90
20319;DHT22;10317;47.254;11.314;2022-09-13T19:05:51;17.30;99.90
20319;DHT22;10317;47.254;11.314;2022-09-13T19:08:17;17.30;99.90
20319;DHT22;10317;47.254;11.314;2022-09-13T19:10:43;17.30;99.90
20319;DHT22;10317;47.254;11.314;2022-09-13T19:13:08;17.30;99.90
20319;DHT22;10317;47.254;11.314;2022-09-13T19:15:34;17.20;99.90